createdAt,value
2019-04-28T00:03:21.832Z,59.62
2019-04-28T00:08:23.977Z,59.75
2019-04-28T00:13:26.057Z,59.62
2019-04-28T00:18:28.143Z,59.66
2019-04-28T00:23:46.457Z,59.78
2019-04-28T00:28:48.552Z,59.30
2019-04-28T00:33:51.424Z,59.50
2019-04-28T00:38:53.786Z,59.80
2019-04-28T00:43:55.870Z,59.79
2019-04-28T00:48:57.933Z,60.20
2019-04-28T00:54:00.806Z,60.15
2019-04-28T00:59:03.210Z,60.17
2019-04-28T01:04:05.250Z,60.35
2019-04-28T01:09:07.595Z,60.37
2019-04-28T01:14:11.324Z,60.10
2019-04-28T01:19:21.358Z,60.35
2019-04-28T01:24:23.400Z,60.35
2019-04-28T01:29:25.492Z,60.55
2019-04-28T01:34:27.530Z,60.50
2019-04-28T01:39:29.789Z,60.23
2019-04-28T01:44:31.983Z,60.45
2019-04-28T01:49:34.042Z,60.33
2019-04-28T01:54:36.077Z,60.49
2019-04-28T01:59:39.738Z,60.29
2019-04-28T02:04:42.136Z,60.63
2019-04-28T02:09:44.313Z,60.69
2019-04-28T02:14:46.390Z,60.59
2019-04-28T02:19:48.466Z,60.82
2019-04-28T02:24:51.748Z,60.58
2019-04-28T02:29:53.966Z,60.78
2019-04-28T02:34:56.041Z,60.83
2019-04-28T02:40:02.905Z,60.62
2019-04-28T02:45:02.225Z,60.73
2019-04-28T02:50:23.527Z,60.57
2019-04-28T02:55:25.584Z,60.66
2019-04-28T03:00:27.639Z,60.82
2019-04-28T03:05:30.331Z,60.85
2019-04-28T03:10:33.648Z,60.61
2019-04-28T03:15:35.710Z,60.72
2019-04-28T03:20:37.903Z,60.74
2019-04-28T03:25:50.476Z,60.92
2019-04-28T03:31:34.707Z,60.78
2019-04-28T03:36:10.303Z,60.92
2019-04-28T03:41:12.207Z,60.82
2019-04-28T03:46:20.373Z,60.97
2019-04-28T03:51:22.825Z,60.94
2019-04-28T03:56:24.924Z,60.77
2019-04-28T04:01:26.967Z,61.08
2019-04-28T04:06:31.070Z,61.14
2019-04-28T04:11:41.068Z,61.26
2019-04-28T04:16:50.278Z,60.94
2019-04-28T04:21:53.054Z,60.87
2019-04-28T04:26:55.822Z,60.72
2019-04-28T04:32:13.456Z,60.34
2019-04-28T04:37:01.909Z,60.29
2019-04-28T04:42:03.975Z,59.91
2019-04-28T04:47:10.768Z,60.18
2019-04-28T04:52:12.432Z,60.16
2019-04-28T04:57:14.660Z,59.99
2019-04-28T05:02:29.619Z,60.14
2019-04-28T05:07:29.708Z,59.96
2019-04-28T05:12:32.051Z,59.91
2019-04-28T05:17:34.111Z,59.61
2019-04-28T05:22:42.713Z,59.43
2019-04-28T05:27:44.842Z,59.47
2019-04-28T05:32:55.411Z,59.35
2019-04-28T05:37:51.035Z,59.19
2019-04-28T05:42:57.820Z,59.76
2019-04-28T05:48:00.679Z,59.32
2019-04-28T05:53:24.876Z,59.12
2019-04-28T05:58:41.617Z,58.97
2019-04-28T06:03:44.396Z,58.93
2019-04-28T06:09:10.296Z,58.64
2019-04-28T06:14:12.590Z,58.59
2019-04-28T06:19:14.679Z,57.92
2019-04-28T06:24:16.792Z,57.81
2019-04-28T06:29:18.903Z,57.99
2019-04-28T06:34:21.070Z,57.49
2019-04-28T06:39:23.235Z,57.51
2019-04-28T06:44:25.357Z,57.35
2019-04-28T06:49:27.427Z,57.15
2019-04-28T06:54:29.587Z,57.16
2019-04-28T06:59:31.769Z,56.57
2019-04-28T07:04:33.845Z,55.98
2019-04-28T07:09:35.938Z,55.94
2019-04-28T07:14:38.015Z,55.92
2019-04-28T07:19:42.042Z,55.90
2019-04-28T07:24:44.940Z,55.20
2019-04-28T07:29:47.147Z,55.11
2019-04-28T07:34:49.208Z,54.79
2019-04-28T07:39:51.401Z,54.93
2019-04-28T07:44:53.462Z,55.42
2019-04-28T07:49:55.541Z,55.84
2019-04-28T07:54:57.636Z,55.98
2019-04-28T07:59:59.714Z,56.52
2019-04-28T08:05:01.836Z,57.24
2019-04-28T08:10:04.980Z,57.30
2019-04-28T08:15:07.351Z,57.23
2019-04-28T08:20:09.660Z,57.36
2019-04-28T08:25:11.905Z,57.15
2019-04-28T08:30:14.191Z,57.11
2019-04-28T08:35:16.246Z,57.52
2019-04-28T08:40:18.399Z,57.07
2019-04-28T08:45:20.752Z,56.63
2019-04-28T08:50:22.806Z,57.07
2019-04-28T08:55:24.921Z,57.38
2019-04-28T09:00:26.973Z,56.69
2019-04-28T09:05:29.049Z,56.27
2019-04-28T09:10:33.496Z,55.92
2019-04-28T09:15:35.594Z,55.65
2019-04-28T09:20:37.675Z,55.00
2019-04-28T09:25:39.845Z,55.44
2019-04-28T09:30:41.943Z,54.84
2019-04-28T09:35:44.063Z,53.35
2019-04-28T09:40:46.180Z,53.33
2019-04-28T09:46:07.929Z,53.25
2019-04-28T09:51:09.980Z,52.47
2019-04-28T09:56:12.020Z,52.69
2019-04-28T10:01:14.077Z,53.06
2019-04-28T10:06:16.122Z,52.02
2019-04-28T10:11:30.042Z,52.68
2019-04-28T10:16:22.175Z,52.45
2019-04-28T10:21:24.227Z,51.71
2019-04-28T10:26:26.301Z,52.65
2019-04-28T10:31:28.387Z,53.11
2019-04-28T10:36:30.993Z,52.71
2019-04-28T10:41:36.098Z,51.87
2019-04-28T10:46:38.226Z,50.86
2019-04-28T10:51:40.361Z,50.46
2019-04-28T10:56:42.420Z,49.49
2019-04-28T11:01:44.539Z,50.22
2019-04-28T11:06:46.650Z,50.51
2019-04-28T11:11:48.762Z,49.10
2019-04-28T11:16:50.827Z,49.47
2019-04-28T11:21:52.910Z,49.78
2019-04-28T11:26:55.171Z,47.83
2019-04-28T11:31:57.300Z,48.37
2019-04-28T11:36:59.511Z,47.51
2019-04-28T11:42:01.565Z,48.41
2019-04-28T11:47:06.111Z,48.06
2019-04-28T11:52:08.193Z,48.52
2019-04-28T11:57:10.337Z,47.15
2019-04-28T12:02:12.513Z,46.01
2019-04-28T12:07:14.685Z,46.49
2019-04-28T12:12:27.526Z,45.77
2019-04-28T12:17:46.754Z,45.27
2019-04-28T12:22:48.833Z,45.22
2019-04-28T12:27:50.890Z,44.14
2019-04-28T12:32:53.122Z,44.34
2019-04-28T12:37:55.200Z,43.37
2019-04-28T12:42:57.388Z,42.59
2019-04-28T12:47:59.572Z,41.73
2019-04-28T12:53:03.128Z,41.30
2019-04-28T12:58:05.287Z,41.07
2019-04-28T13:03:25.560Z,40.53
2019-04-28T13:08:27.592Z,39.87
2019-04-28T13:13:29.745Z,39.00
2019-04-28T13:18:31.932Z,39.02
2019-04-28T13:23:34.125Z,39.93
2019-04-28T13:28:36.229Z,40.61
2019-04-28T13:33:38.422Z,40.83
2019-04-28T13:38:40.566Z,40.73
2019-04-28T13:43:42.774Z,41.64
2019-04-28T13:48:44.874Z,41.76
2019-04-28T13:53:46.980Z,41.91
2019-04-28T13:59:07.025Z,41.82
2019-04-28T14:04:40.848Z,41.24
2019-04-28T14:09:45.801Z,40.94
2019-04-28T14:14:48.094Z,40.63
2019-04-28T14:19:52.923Z,40.67
2019-04-28T14:24:55.305Z,41.03
2019-04-28T14:29:58.334Z,40.94
2019-04-28T14:35:08.582Z,40.29
2019-04-28T14:40:11.119Z,39.76
2019-04-28T14:45:16.036Z,39.95
2019-04-28T14:50:18.425Z,39.66
2019-04-28T14:55:20.867Z,40.33
2019-04-28T15:00:29.893Z,39.43
2019-04-28T15:05:59.617Z,40.32
2019-04-28T15:11:30.565Z,39.92
2019-04-28T15:16:32.846Z,41.18
2019-04-28T15:21:35.018Z,40.32
2019-04-28T15:26:38.363Z,39.92
2019-04-28T15:31:42.744Z,40.02
2019-04-28T15:36:45.126Z,39.74
2019-04-28T15:41:49.602Z,39.73
2019-04-28T15:46:51.660Z,40.38
2019-04-28T15:51:55.160Z,40.11
2019-04-28T15:56:57.259Z,40.67
2019-04-28T16:01:59.487Z,41.28
2019-04-28T16:07:01.652Z,40.25
2019-04-28T16:12:03.776Z,41.33
2019-04-28T16:17:05.833Z,40.76
2019-04-28T16:22:07.938Z,41.66
2019-04-28T16:27:09.976Z,40.67
2019-04-28T16:32:12.283Z,40.95
2019-04-28T16:37:14.401Z,42.07
2019-04-28T16:42:18.254Z,41.94
2019-04-28T16:47:20.358Z,42.08
2019-04-28T16:52:22.632Z,41.65
2019-04-28T16:57:44.281Z,42.45
2019-04-28T17:02:49.147Z,43.23
2019-04-28T17:07:52.796Z,43.24
2019-04-28T17:12:55.284Z,43.79
2019-04-28T17:17:59.680Z,43.67
2019-04-28T17:23:01.877Z,43.97
2019-04-28T17:28:04.344Z,44.68
2019-04-28T17:33:06.469Z,45.57
2019-04-28T17:38:08.496Z,45.50
2019-04-28T17:43:10.542Z,46.35
2019-04-28T17:48:18.522Z,46.28
2019-04-28T17:53:20.624Z,46.61
2019-04-28T17:58:22.725Z,46.99
2019-04-28T18:03:47.054Z,47.50
2019-04-28T18:08:49.187Z,48.05
2019-04-28T18:13:51.257Z,47.60
2019-04-28T18:18:59.845Z,47.92
2019-04-28T18:24:01.941Z,48.30
2019-04-28T18:29:04.007Z,48.71
2019-04-28T18:34:25.797Z,48.65
2019-04-28T18:39:46.132Z,48.47
2019-04-28T18:44:48.247Z,48.70
2019-04-28T18:49:50.315Z,48.78
2019-04-28T18:54:52.420Z,48.69
2019-04-28T18:59:54.501Z,49.14
2019-04-28T19:04:56.626Z,49.08
2019-04-28T19:10:05.010Z,49.21
2019-04-28T19:15:26.817Z,49.61
2019-04-28T19:20:28.896Z,49.40
2019-04-28T19:25:35.254Z,49.45
2019-04-28T19:30:36.751Z,49.99
2019-04-28T19:35:38.845Z,50.31
2019-04-28T19:40:40.993Z,50.11
2019-04-28T19:45:44.839Z,50.36
2019-04-28T19:50:46.916Z,50.66
2019-04-28T19:56:03.937Z,50.82
2019-04-28T20:01:13.122Z,50.60
2019-04-28T20:06:15.312Z,50.60
2019-04-28T20:11:17.481Z,50.96
2019-04-28T20:16:22.586Z,50.78
2019-04-28T20:21:24.618Z,50.94
2019-04-28T20:26:26.686Z,50.70
2019-04-28T20:31:28.727Z,51.05
2019-04-28T20:36:56.360Z,50.96
2019-04-28T20:42:18.037Z,50.74
2019-04-28T20:47:20.208Z,50.93
2019-04-28T20:52:24.513Z,51.03
2019-04-28T20:57:26.551Z,51.50
2019-04-28T21:02:28.587Z,51.21
2019-04-28T21:07:30.663Z,51.38
2019-04-28T21:12:32.729Z,52.02
2019-04-28T21:17:34.894Z,52.21
2019-04-28T21:22:36.943Z,52.24
2019-04-28T21:27:39.213Z,52.24
2019-04-28T21:32:41.285Z,52.17
2019-04-28T21:37:45.736Z,52.60
2019-04-28T21:43:16.533Z,52.68
2019-04-28T21:48:34.800Z,52.55
2019-04-28T21:53:36.883Z,52.68
2019-04-28T21:58:38.947Z,52.55
2019-04-28T22:03:40.997Z,52.89
2019-04-28T22:08:43.062Z,53.05
2019-04-28T22:13:45.121Z,53.15
2019-04-28T22:18:47.234Z,53.18
2019-04-28T22:23:58.921Z,53.40
2019-04-28T22:29:02.867Z,53.33
2019-04-28T22:34:04.977Z,53.60
2019-04-28T22:39:07.076Z,53.40
2019-04-28T22:44:09.125Z,53.62
2019-04-28T22:49:13.386Z,53.69
2019-04-28T22:54:25.060Z,54.11
2019-04-28T22:59:31.165Z,54.38
2019-04-28T23:04:37.737Z,54.48
2019-04-28T23:09:39.864Z,54.35
2019-04-28T23:14:41.980Z,54.26
2019-04-28T23:19:44.065Z,54.35
2019-04-28T23:24:46.257Z,54.61
2019-04-28T23:29:48.359Z,54.67
2019-04-28T23:34:50.482Z,54.80
2019-04-28T23:39:52.560Z,54.99
2019-04-28T23:44:54.642Z,54.94
2019-04-28T23:49:57.090Z,54.96
2019-04-28T23:55:01.175Z,54.93
